Time;durP1;ratioP1;P1;durP2;ratioP2;P2;SDS_P1;SDS_P2;PMS_P1;PMS_P2;Temp;Humidity;BMP_temperature;BMP_pressure;BME280_temperature;BME280_humidity;BME280_pressure;Samples;Min_cycle;Max_cycle;Signal;HPM_P1;HPM_P2
2022/04/27 00:00:36;;;;;;;35.83;18.00;;;3.10;99.90;;;1.70;95.17;101619.91;4957416;28;20083;-76
2022/04/27 00:03:04;;;;;;;27.65;13.90;;;3.20;99.90;;;1.70;96.35;101609.53;4989059;28;20029;-76
2022/04/27 00:05:31;;;;;;;25.15;14.88;;;3.20;99.90;;;1.72;96.85;101618.19;4988447;28;20050;-76
2022/04/27 00:07:59;;;;;;;26.17;14.85;;;3.20;99.90;;;1.72;97.03;101610.41;4952369;28;20037;-76
2022/04/27 00:10:27;;;;;;;18.88;10.90;;;3.10;99.90;;;1.63;96.03;101618.16;4974777;28;20441;-76
2022/04/27 00:12:53;;;;;;;18.63;10.40;;;3.00;99.90;;;1.49;94.11;101614.63;4966043;28;20837;-76
2022/04/27 00:15:25;;;;;;;21.17;11.85;;;2.90;99.90;;;1.35;93.09;101611.97;4968619;28;20034;-75
2022/04/27 00:17:55;;;;;;;21.40;11.50;;;2.80;99.90;;;1.30;91.92;101611.94;4972251;28;20026;-76
2022/04/27 00:20:21;;;;;;;32.55;14.80;;;2.80;99.90;;;1.28;92.32;101616.25;4975718;28;20041;-77
2022/04/27 00:22:47;;;;;;;28.92;14.82;;;2.80;99.90;;;1.33;93.56;101617.13;4983609;28;20503;-77
2022/04/27 00:25:12;;;;;;;26.45;13.98;;;2.80;99.90;;;1.35;94.01;101615.41;5002603;28;20064;-76
2022/04/27 00:27:38;;;;;;;17.90;8.93;;;2.80;99.90;;;1.26;93.69;101625.75;4985792;28;20113;-76
2022/04/27 00:30:05;;;;;;;22.33;11.05;;;2.70;99.90;;;1.12;92.64;101624.78;4980147;28;20034;-76
2022/04/27 00:32:30;;;;;;;20.05;10.60;;;2.60;99.90;;;1.02;91.16;101626.47;4969434;28;20041;-76
2022/04/27 00:34:58;;;;;;;19.50;11.68;;;2.50;99.90;;;0.96;91.50;101618.63;4955719;28;20091;-77
2022/04/27 00:37:24;;;;;;;25.58;14.65;;;2.50;99.90;;;0.94;91.76;101621.22;5012887;28;20076;-76
2022/04/27 00:39:49;;;;;;;30.80;16.60;;;2.40;99.90;;;0.98;92.01;101630.75;4980171;28;20026;-76
2022/04/27 00:42:19;;;;;;;39.90;18.70;;;2.50;99.90;;;1.01;93.27;101629.91;4997664;28;20030;-76
2022/04/27 00:44:46;;;;;;;28.17;15.80;;;2.50;99.90;;;1.03;93.75;101623.84;4988675;28;20088;-76
2022/04/27 00:47:16;;;;;;;31.17;15.27;;;2.50;99.90;;;1.03;94.53;101623.00;4954992;28;20024;-77
2022/04/27 00:49:51;;;;;;;26.52;14.40;;;2.50;99.90;;;1.03;94.60;101626.44;4963366;28;20398;-76
2022/04/27 00:52:19;;;;;;;27.90;13.48;;;2.50;99.90;;;0.99;94.35;101629.91;4965405;28;20023;-76
2022/04/27 00:54:48;;;;;;;26.25;14.02;;;2.50;99.90;;;0.97;94.45;101621.25;4984442;28;20550;-77
2022/04/27 00:57:14;;;;;;;32.35;15.40;;;2.50;99.90;;;0.95;94.56;101622.97;4963812;28;20045;-76
2022/04/27 00:59:41;;;;;;;21.23;10.43;;;2.40;99.90;;;0.93;95.09;101623.78;4965936;28;20458;-76
2022/04/27 01:02:07;;;;;;;22.75;10.10;;;2.40;99.90;;;0.88;94.44;101628.94;4967451;28;20062;-76
2022/04/27 01:04:35;;;;;;;25.52;14.52;;;2.40;99.90;;;0.84;93.79;101626.31;5003316;28;20025;-76
2022/04/27 01:07:01;;;;;;;30.58;16.58;;;2.30;99.90;;;0.80;94.27;101617.66;4976378;28;20034;-77
2022/04/27 01:09:29;;;;;;;38.92;18.60;;;2.30;99.90;;;0.81;94.55;101619.38;4981426;28;20041;-77
2022/04/27 01:12:04;;;;;;;32.85;17.45;;;2.30;99.90;;;0.85;94.94;101625.47;4981373;28;20037;-76
2022/04/27 01:14:44;;;;;;;46.85;19.05;;;2.40;99.90;;;0.86;96.10;101625.47;4987739;28;20108;-75
2022/04/27 01:17:10;;;;;;;33.90;17.55;;;2.30;99.90;;;0.87;96.52;101629.81;4980711;28;20033;-75
2022/04/27 01:19:36;;;;;;;35.47;18.45;;;2.30;99.90;;;0.86;96.75;101622.88;4979738;28;20088;-77
2022/04/27 01:22:04;;;;;;;35.55;18.13;;;2.30;99.90;;;0.87;97.22;101623.75;4975874;28;20026;-76
2022/04/27 01:24:35;;;;;;;30.75;15.35;;;2.30;99.90;;;0.84;97.25;101627.16;4990152;28;20049;-76
2022/04/27 01:27:01;;;;;;;35.17;16.33;;;2.30;99.90;;;0.84;97.58;101634.09;4978165;28;20070;-76
2022/04/27 01:29:27;;;;;;;28.70;15.95;;;2.30;99.90;;;0.83;97.83;101628.03;4983058;28;20038;-76
2022/04/27 01:32:00;;;;;;;34.92;17.67;;;2.40;99.90;;;0.82;97.47;101632.38;4976162;28;20045;-76
2022/04/27 01:34:26;;;;;;;34.85;16.70;;;2.30;99.90;;;0.84;97.92;101639.28;4982329;28;20053;-76
2022/04/27 01:36:54;;;;;;;30.40;17.23;;;2.40;99.90;;;0.83;97.66;101628.03;5003012;28;20075;-75
2022/04/27 01:39:23;;;;;;;31.90;16.30;;;2.30;99.90;;;0.83;97.61;101638.41;4987923;28;20116;-76
2022/04/27 01:41:57;;;;;;;29.02;16.10;;;2.30;99.90;;;0.81;97.67;101635.81;5003690;22;20577;-76
2022/04/27 01:44:22;;;;;;;30.35;16.73;;;2.30;99.90;;;0.82;97.78;101640.16;5030596;28;20481;-76
2022/04/27 01:46:48;;;;;;;26.65;14.23;;;2.30;99.90;;;0.81;97.37;101633.19;5020522;28;20033;-76
2022/04/27 01:49:14;;;;;;;33.45;16.00;;;2.30;99.90;;;0.79;97.43;101637.50;5007472;28;20041;-76
2022/04/27 01:54:26;;;;;;;31.15;15.85;;;2.30;99.90;;;0.77;97.50;101638.34;4991949;28;20055;-76
2022/04/27 01:56:52;;;;;;;33.08;17.77;;;2.20;99.90;;;0.74;97.70;101646.97;4995586;28;20055;-75
2022/04/27 01:59:17;;;;;;;27.40;15.60;;;2.20;99.90;;;0.71;97.53;101648.66;4947615;28;20048;-76
2022/04/27 02:01:43;;;;;;;32.60;17.42;;;2.20;99.90;;;0.66;97.62;101652.97;4998039;28;20041;-76
2022/04/27 02:04:09;;;;;;;30.25;17.08;;;2.20;99.90;;;0.61;97.93;101646.00;5019357;28;20021;-76
2022/04/27 02:06:35;;;;;;;31.42;16.60;;;2.10;99.90;;;0.58;98.28;101656.34;5013771;28;20041;-76
2022/04/27 02:09:06;;;;;;;34.20;17.55;;;2.10;99.90;;;0.54;98.22;101652.00;5006515;28;20040;-76
2022/04/27 02:11:32;;;;;;;39.00;19.50;;;2.10;99.90;;;0.54;98.52;101654.59;4989691;28;20404;-76
2022/04/27 02:13:59;;;;;;;39.50;19.23;;;2.10;99.90;;;0.54;99.03;101652.00;5012539;28;20030;-76
2022/04/27 02:16:26;;;;;;;35.63;19.27;;;2.10;99.90;;;0.55;99.48;101651.13;5011372;28;20025;-76
2022/04/27 02:18:52;;;;;;;44.60;20.67;;;2.10;99.90;;;0.56;100.00;101665.84;4973303;28;20052;-76
2022/04/27 02:21:20;;;;;;;46.25;21.05;;;2.10;99.90;;;0.58;100.00;101658.06;4987993;28;21930;-77
2022/04/27 02:23:49;;;;;;;42.92;21.35;;;2.10;99.90;;;0.64;100.00;101660.72;5010620;28;20286;-76
2022/04/27 02:26:15;;;;;;;42.75;20.42;;;2.20;99.90;;;0.67;100.00;101665.03;5004567;28;20029;-76
2022/04/27 02:28:41;;;;;;;41.30;19.52;;;2.20;99.90;;;0.67;100.00;101657.28;5003977;28;20029;-76
2022/04/27 02:31:08;;;;;;;41.75;20.67;;;2.20;99.90;;;0.74;100.00;101662.53;4969059;28;20097;-77
2022/04/27 02:33:34;;;;;;;42.42;20.13;;;2.30;99.90;;;0.79;100.00;101668.63;4995019;28;20033;-76
2022/04/27 02:36:02;;;;;;;43.75;20.60;;;2.30;99.90;;;0.84;100.00;101675.56;4979661;28;20029;-76
2022/04/27 02:38:28;;;;;;;43.30;20.80;;;2.30;99.90;;;0.88;100.00;101675.59;5008924;28;20630;-77
2022/04/27 02:40:57;;;;;;;38.42;19.73;;;2.40;99.90;;;0.89;100.00;101674.78;5015859;28;20047;-76
2022/04/27 02:43:23;;;;;;;46.88;20.52;;;2.40;99.90;;;0.89;100.00;101673.91;4984949;28;20143;-76
2022/04/27 02:45:48;;;;;;;36.50;18.30;;;2.30;99.90;;;0.89;100.00;101687.72;4984508;28;20049;-76
2022/04/27 02:48:16;;;;;;;36.78;17.90;;;2.30;99.90;;;0.85;100.00;101688.56;5001559;28;20075;-76
2022/04/27 02:53:26;;;;;;;36.17;17.95;;;2.30;99.90;;;0.79;100.00;101683.31;5005064;28;20039;-77
2022/04/27 02:55:52;;;;;;;35.13;16.92;;;2.30;99.90;;;0.78;100.00;101681.59;5004883;28;20029;-76
2022/04/27 02:58:18;;;;;;;33.25;17.02;;;2.20;99.90;;;0.76;100.00;101684.16;5021438;28;20021;-76
2022/04/27 03:00:45;;;;;;;35.63;18.48;;;2.20;99.90;;;0.73;100.00;101684.13;5005750;22;20045;-76
2022/04/27 03:03:11;;;;;;;33.90;17.30;;;2.20;99.90;;;0.71;100.00;101684.97;4986435;28;20037;-76
2022/04/27 03:05:37;;;;;;;36.03;16.90;;;2.20;99.90;;;0.68;100.00;101684.94;5000452;28;20049;-75
2022/04/27 03:08:04;;;;;;;29.95;16.95;;;2.10;99.90;;;0.64;100.00;101683.19;4980871;28;20037;-76
2022/04/27 03:10:29;;;;;;;33.30;17.27;;;3.30;99.90;;;0.60;100.00;101696.13;5016693;28;20041;-76
2022/04/27 03:12:55;;;;;;;31.85;16.80;;;2.10;99.90;;;0.56;100.00;101694.34;4990633;28;20037;-76
2022/04/27 03:15:22;;;;;;;29.75;15.15;;;2.00;99.90;;;0.52;100.00;101695.16;4959684;28;20049;-76
2022/04/27 03:18:16;;;;;;;34.03;18.00;;;2.00;99.90;;;0.51;100.00;101697.72;4979768;28;20025;-76
2022/04/27 03:20:33;;;;;;;37.35;19.33;;;2.00;99.90;;;0.51;100.00;101697.72;4980974;28;20145;-76
2022/04/27 03:23:01;;;;;;;33.13;17.40;;;2.00;99.90;;;0.52;100.00;101697.75;4989206;28;20021;-76
2022/04/27 03:25:27;;;;;;;31.52;17.70;;;2.00;99.90;;;0.52;100.00;101696.88;4970562;28;20433;-76
2022/04/27 03:27:52;;;;;;;33.60;17.77;;;2.00;99.90;;;0.50;100.00;101707.25;4965980;28;20392;-75
2022/04/27 03:30:18;;;;;;;28.38;15.80;;;2.00;99.90;;;0.48;100.00;101703.75;4999851;28;20042;-76
2022/04/27 03:32:44;;;;;;;39.17;16.35;;;2.00;99.90;;;0.47;100.00;101707.19;5004668;28;20560;-76
2022/04/27 03:35:09;;;;;;;33.40;17.23;;;1.90;99.90;;;0.45;100.00;101711.47;4974863;28;20044;-76
2022/04/27 03:37:35;;;;;;;32.08;17.50;;;1.90;99.90;;;0.41;100.00;101712.28;4999545;28;20564;-76
2022/04/27 03:40:01;;;;;;;34.20;16.23;;;1.90;99.90;;;0.36;99.84;101712.25;4943666;28;20029;-76
2022/04/27 03:42:27;;;;;;;32.35;17.27;;;1.80;99.90;;;0.33;99.37;101704.47;4982162;28;20055;-76
2022/04/27 03:44:52;;;;;;;30.92;16.10;;;1.80;99.90;;;0.30;98.49;101698.34;5014300;28;20690;-76
2022/04/27 03:47:18;;;;;;;34.58;16.77;;;1.80;99.90;;;0.29;98.89;101714.78;4992194;28;24281;-75
2022/04/27 03:49:44;;;;;;;32.85;15.32;;;1.80;99.90;;;0.28;98.97;101713.91;4959136;28;20033;-75
2022/04/27 03:52:09;;;;;;;28.50;15.65;;;1.80;99.90;;;0.30;98.47;101716.50;4976699;28;20762;-75
2022/04/27 03:54:35;;;;;;;38.97;16.88;;;1.80;99.90;;;0.33;98.44;101719.16;4997648;28;20049;-75
2022/04/27 03:57:01;;;;;;;34.97;18.10;;;1.80;99.90;;;0.37;97.77;101726.09;4971156;28;20092;-76
2022/04/27 03:59:26;;;;;;;31.35;17.83;;;1.80;99.90;;;0.44;98.05;101722.72;4991306;28;20025;-76
2022/04/27 04:01:52;;;;;;;33.40;16.60;;;1.90;99.90;;;0.55;97.99;101728.88;4969236;28;20040;-76
2022/04/27 04:04:18;;;;;;;34.00;17.38;;;2.00;99.90;;;0.68;97.92;101737.66;5004226;28;20091;-76
2022/04/27 04:06:44;;;;;;;32.70;17.83;;;2.10;99.90;;;0.84;97.65;101736.06;5011596;28;20067;-76
2022/04/27 04:09:09;;;;;;;37.30;18.20;;;2.20;99.90;;;1.02;97.35;101738.00;4975472;28;20049;-76
2022/04/27 04:11:35;;;;;;;41.75;20.17;;;2.40;99.90;;;1.21;97.39;101746.81;4987447;28;20025;-76
2022/04/27 04:14:01;;;;;;;37.30;17.73;;;2.60;99.90;;;1.44;96.87;101747.81;4990824;28;20053;-75
2022/04/27 04:16:27;;;;;;;33.00;18.05;;;2.70;99.90;;;1.69;96.54;101753.22;4980178;28;20122;-76
2022/04/27 04:18:52;;;;;;;36.58;19.90;;;2.90;99.90;;;1.93;96.71;101746.44;4985143;28;20034;-76
2022/04/27 04:21:18;;;;;;;39.78;18.98;;;3.10;99.90;;;2.13;96.22;101754.31;4981575;28;20026;-76
2022/04/27 04:23:46;;;;;;;46.08;18.88;;;3.30;99.90;;;2.37;95.47;101748.34;4970686;28;20037;-76
2022/04/27 04:28:56;;;;;;;31.42;17.48;;;3.80;99.90;;;2.87;92.68;101758.91;4966442;28;20053;-76
2022/04/27 04:31:21;;;;;;;35.22;18.17;;;4.00;99.90;;;3.11;91.49;101769.31;4958150;28;20553;-76
2022/04/27 04:33:47;;;;;;;38.33;19.27;;;4.20;99.90;;;3.77;90.18;101774.50;4959509;28;20053;-76
2022/04/27 04:36:15;;;;;;;37.35;18.38;;;4.90;99.90;;;4.61;86.93;101766.38;4975547;28;20026;-75
2022/04/27 04:38:40;;;;;;;29.60;17.08;;;5.40;99.90;;;4.99;83.46;101767.91;4971379;28;20032;-75
2022/04/27 04:41:06;;;;;;;27.95;16.42;;;5.40;99.90;;;4.64;82.27;101768.97;4959977;28;20021;-77
2022/04/27 04:43:32;;;;;;;29.30;16.55;;;5.40;99.90;;;4.44;81.13;101776.91;4995179;28;20057;-77
2022/04/27 04:45:59;;;;;;;31.52;17.15;;;5.30;99.90;;;4.29;80.91;101779.56;4997542;28;20095;-76
2022/04/27 04:48:25;;;;;;;30.02;17.77;;;5.30;99.90;;;4.27;81.26;101784.78;4976615;28;20060;-76
2022/04/27 04:50:51;;;;;;;35.70;18.35;;;5.30;99.90;;;4.30;81.41;101789.16;4971130;28;20050;-75
2022/04/27 04:53:21;;;;;;;29.90;17.13;;;5.30;99.90;;;4.38;81.10;101792.56;4955992;28;20052;-76
2022/04/27 04:55:46;;;;;;;28.55;16.65;;;5.30;99.90;;;4.50;81.45;101796.88;4976719;28;20028;-76
2022/04/27 04:58:12;;;;;;;33.28;17.15;;;5.40;99.90;;;4.65;81.45;101802.03;4979761;28;20055;-76
2022/04/27 05:00:38;;;;;;;35.72;17.58;;;5.50;99.90;;;4.85;80.40;101801.06;4989693;28;20139;-76
2022/04/27 05:03:03;;;;;;;24.38;15.10;;;5.60;99.90;;;4.98;79.98;101804.47;4960651;28;20562;-76
2022/04/27 05:05:29;;;;;;;31.27;17.83;;;5.80;99.90;;;5.11;79.21;101809.56;4995951;28;20580;-76
2022/04/27 05:07:55;;;;;;;30.10;17.05;;;5.90;99.90;;;5.30;78.99;101812.94;5008374;28;20100;-75
2022/04/27 05:10:21;;;;;;;31.77;18.15;;;6.10;99.90;;;5.60;78.68;101813.56;4992501;28;20528;-76
2022/04/27 05:12:49;;;;;;;39.47;20.13;;;6.70;99.90;;;7.65;75.45;101814.50;4978746;28;20056;-75
2022/04/27 05:15:15;;;;;;;37.75;20.17;;;7.30;99.90;;;8.38;71.29;101814.00;4949948;28;20037;-76
2022/04/27 05:17:40;;;;;;;36.22;18.90;;;7.60;99.90;;;7.83;70.18;101820.31;4990227;28;20062;-77
2022/04/27 05:20:07;;;;;;;34.67;18.73;;;7.90;99.90;;;8.62;68.70;101821.41;4990163;28;20073;-76
2022/04/27 05:22:43;;;;;;;35.78;19.30;;;8.60;99.90;;;10.59;63.78;101823.56;4977343;28;20551;-76
2022/04/27 05:25:11;;;;;;;32.38;18.45;;;9.40;99.90;;;11.97;59.97;101823.59;4987537;28;20024;-76
2022/04/27 05:27:39;;;;;;;32.97;19.38;;;10.50;99.90;;;13.96;54.36;101820.25;4965389;28;20039;-76
2022/04/27 05:32:50;;;;;;;33.17;18.77;;;13.70;99.90;;;19.64;43.07;101838.72;4969498;28;20025;-76
2022/04/27 05:35:16;;;;;;;29.63;19.02;;;15.10;99.90;;;21.05;39.66;101841.38;4984816;28;20113;-78
2022/04/27 05:37:43;;;;;;;33.03;18.75;;;16.50;99.90;;;22.43;37.70;101858.72;5005999;28;20026;-76
2022/04/27 05:40:11;;;;;;;28.50;18.90;;;17.50;99.90;;;23.27;35.99;101876.09;4996081;28;20078;-76
2022/04/27 05:42:37;;;;;;;33.20;20.80;;;18.70;99.90;;;24.38;35.03;101884.72;4996764;28;20050;-76
2022/04/27 05:45:04;;;;;;;39.50;20.75;;;19.60;98.20;;;25.15;33.78;101895.81;5005603;28;20038;-76
2022/04/27 05:47:31;;;;;;;33.38;20.48;;;20.00;96.00;;;25.00;33.44;101907.97;4992766;28;20030;-76
2022/04/27 05:49:56;;;;;;;32.42;20.38;;;20.30;95.60;;;25.20;33.39;101919.69;4997843;28;20025;-76
2022/04/27 05:52:22;;;;;;;32.70;19.08;;;20.40;94.90;;;25.25;32.90;101928.25;5017484;28;20044;-76
2022/04/27 05:54:49;;;;;;;33.25;19.90;;;20.60;94.80;;;25.26;32.98;101940.72;4991374;28;20120;-76
2022/04/27 05:57:14;;;;;;;30.08;20.63;;;20.50;94.00;;;24.90;33.17;101945.69;5018982;28;20029;-76
2022/04/27 05:59:43;;;;;;;28.15;19.58;;;20.60;94.20;;;25.10;33.67;101949.28;4985685;28;20071;-76
2022/04/27 06:02:09;;;;;;;29.23;19.83;;;21.10;95.20;;;26.28;32.42;101952.97;5005038;28;20397;-76
2022/04/27 06:04:34;;;;;;;28.30;19.23;;;22.00;94.50;;;27.69;31.05;101963.66;4985371;28;20033;-76
2022/04/27 06:07:00;;;;;;;27.15;19.45;;;23.10;93.30;;;28.80;29.90;101977.56;4992385;28;20108;-76
2022/04/27 06:09:26;;;;;;;30.10;20.38;;;24.20;91.70;;;29.80;28.43;101974.22;4981783;28;20029;-76
2022/04/27 06:11:52;;;;;;;28.95;19.58;;;25.00;90.90;;;30.43;27.52;101980.84;4951125;28;20048;-76
2022/04/27 06:14:18;;;;;;;29.70;19.83;;;25.80;89.00;;;30.94;26.94;101992.31;4933533;28;20092;-76
2022/04/27 06:16:43;;;;;;;29.05;19.13;;;26.40;88.40;;;31.51;26.43;102002.09;5002807;28;20037;-76
2022/04/27 06:19:09;;;;;;;37.45;20.42;;;27.10;85.60;;;32.08;25.79;102014.53;5001031;28;20030;-76
2022/04/27 06:21:35;;;;;;;36.70;20.83;;;27.70;83.80;;;32.37;25.66;102023.81;4987134;28;20033;-76
2022/04/27 06:24:04;;;;;;;28.77;19.92;;;28.00;83.30;;;31.66;26.46;102032.13;4976488;28;20503;-76
2022/04/27 06:26:33;;;;;;;30.17;19.90;;;28.30;81.20;;;32.06;25.89;102041.09;4968032;28;20491;-76
2022/04/27 06:29:00;;;;;;;27.98;18.33;;;28.40;76.00;;;31.96;25.73;102044.00;4997974;28;20040;-76
2022/04/27 06:31:25;;;;;;;27.92;18.60;;;28.20;76.60;;;31.59;25.84;102063.81;5019346;28;20080;-77
2022/04/27 06:33:51;;;;;;;26.20;18.60;;;27.80;74.50;;;30.20;26.49;102063.03;5013204;28;20045;-77
2022/04/27 06:36:17;;;;;;;26.70;18.88;;;27.30;77.40;;;29.90;27.27;102072.66;5003480;28;20041;-76
2022/04/27 06:38:42;;;;;;;25.98;17.58;;;27.20;74.90;;;30.11;26.56;102083.06;5016763;28;20030;-77
2022/04/27 06:41:08;;;;;;;24.88;17.58;;;27.10;74.30;;;29.90;27.08;102082.69;4993257;28;20121;-74
2022/04/27 06:43:34;;;;;;;24.15;16.15;;;26.80;75.10;;;29.18;27.66;102083.91;4981555;28;20461;-74
2022/04/27 06:46:00;;;;;;;24.45;17.20;;;26.40;74.60;;;28.41;28.51;102086.34;4986573;28;20140;-75
2022/04/27 06:48:27;;;;;;;27.02;16.48;;;26.40;75.20;;;28.55;28.60;102097.66;4956541;28;20965;-74
2022/04/27 06:50:53;;;;;;;22.15;16.10;;;26.10;76.60;;;27.97;29.04;102099.78;5031367;28;20030;-74
2022/04/27 06:53:21;;;;;;;26.30;16.88;;;25.90;75.50;;;27.82;29.39;102093.16;4966203;28;20413;-75
2022/04/27 06:55:49;;;;;;;22.45;17.27;;;25.80;76.10;;;27.41;30.06;102100.78;4983752;28;20033;-74
2022/04/27 06:58:16;;;;;;;29.73;17.77;;;25.70;77.30;;;27.59;30.24;102098.13;4989910;28;20034;-74
2022/04/27 07:00:42;;;;;;;24.52;17.17;;;25.80;76.20;;;27.64;30.08;102098.53;4988222;28;20037;-74
2022/04/27 07:03:08;;;;;;;26.73;16.17;;;26.00;77.10;;;27.91;29.84;102103.09;5001773;28;20042;-74
2022/04/27 07:05:34;;;;;;;26.63;13.68;;;26.00;75.30;;;27.59;30.24;102096.28;5009552;28;20513;-74
2022/04/27 07:08:00;;;;;;;30.23;15.15;;;26.10;75.60;;;27.60;29.78;102102.53;4990496;28;20128;-74
2022/04/27 07:10:36;;;;;;;20.85;12.90;;;26.20;76.20;;;27.46;29.93;102101.19;4984048;28;20057;-73
2022/04/27 07:13:03;;;;;;;20.98;11.52;;;25.90;73.40;;;26.87;29.56;102113.13;4984035;28;20044;-74
2022/04/27 07:15:29;;;;;;;23.92;11.30;;;26.00;74.30;;;27.04;30.46;102114.22;4968896;28;20157;-74
2022/04/27 07:17:55;;;;;;;23.00;11.07;;;25.70;74.80;;;25.99;31.31;102118.50;4980546;28;20035;-74
2022/04/27 07:20:35;;;;;;;18.80;9.73;;;;;;;23.85;34.37;102114.28;4996166;23;20342;-74
2022/04/27 07:23:01;;;;;;;14.77;9.65;;;24.70;76.40;;;24.67;32.88;102111.97;4970187;28;20060;-74
2022/04/27 07:25:26;;;;;;;17.23;8.93;;;24.30;74.90;;;23.64;34.04;102117.69;5004154;28;20638;-74
2022/04/27 07:27:52;;;;;;;16.13;10.20;;;24.50;75.70;;;24.53;33.00;102115.81;5005004;28;20431;-73
2022/04/27 07:30:18;;;;;;;18.23;10.98;;;24.50;76.30;;;24.69;32.93;102120.78;4999884;28;20038;-74
2022/04/27 07:32:46;;;;;;;16.92;10.82;;;24.50;75.40;;;24.58;32.91;102118.16;4990864;28;20024;-73
2022/04/27 07:35:11;;;;;;;20.88;11.40;;;24.70;75.50;;;24.88;32.84;102125.47;4973767;28;20036;-74
2022/04/27 07:37:38;;;;;;;15.38;10.70;;;24.80;75.80;;;25.12;31.68;102121.66;4999746;28;20101;-73
2022/04/27 07:40:11;;;;;;;15.63;11.40;;;25.10;74.20;;;25.48;31.67;102128.34;4984629;28;20148;-74
2022/04/27 07:42:38;;;;;;;17.33;11.07;;;25.30;75.00;;;25.49;31.79;102126.53;5000398;28;20120;-73
2022/04/27 07:45:06;;;;;;;17.25;11.52;;;25.30;74.20;;;25.13;32.43;102134.13;4997380;28;20590;-74
2022/04/27 07:47:46;;;;;;;18.42;11.07;;;25.00;76.40;;;24.57;33.21;102127.19;4992131;28;20038;-73
2022/04/27 07:50:16;;;;;;;20.98;11.45;;;24.60;75.30;;;24.07;33.40;102130.38;4992243;28;20041;-74
2022/04/27 07:52:43;;;;;;;18.25;12.18;;;24.40;76.00;;;24.01;33.24;102135.41;5007166;28;20044;-75
2022/04/27 07:55:10;;;;;;;19.30;11.57;;;24.50;76.50;;;24.37;33.21;102123.44;4997675;28;20079;-74
2022/04/27 07:57:36;;;;;;;14.27;10.32;;;24.40;76.90;;;23.95;34.21;102129.56;4975495;28;20068;-74
2022/04/27 08:00:08;;;;;;;17.92;11.57;;;24.00;77.60;;;23.25;35.44;102127.94;4981652;28;20470;-74
2022/04/27 08:02:36;;;;;;;15.32;12.07;;;23.60;78.10;;;23.12;35.33;102127.19;4990615;28;21098;-74
2022/04/27 08:05:02;;;;;;;16.83;11.90;;;23.60;79.80;;;23.09;36.20;102125.59;5001086;28;20404;-73
2022/04/27 08:07:38;;;;;;;16.10;11.32;;;23.40;79.70;;;22.73;36.02;102122.06;4975321;28;20058;-74
2022/04/27 08:10:19;;;;;;;17.48;11.98;;;23.30;79.40;;;23.07;35.39;102124.03;5017084;28;20091;-73
2022/04/27 08:12:49;;;;;;;19.73;11.98;;;23.50;80.80;;;23.44;35.98;102118.44;5018896;28;20405;-73
2022/04/27 08:15:17;;;;;;;22.02;12.98;;;23.80;79.40;;;23.76;34.93;102121.28;4992091;28;20030;-74
2022/04/27 08:18:06;;;;;;;16.77;11.38;;;23.80;80.10;;;23.30;35.45;102116.81;5000317;28;20021;-73
2022/04/27 08:23:23;;;;;;;18.48;12.15;;;23.50;79.30;;;22.96;36.73;102107.81;4988773;28;20021;-74
2022/04/27 08:25:50;;;;;;;21.23;12.60;;;23.20;79.50;;;22.60;36.95;102110.53;4958671;28;20551;-73
2022/04/27 08:28:17;;;;;;;17.77;12.25;;;23.10;80.60;;;22.48;37.37;102106.97;4991223;28;20033;-74
